Marys Home, MO

5:10 PM CDT on September 03, 2015 (GMT -0500)
Eldon MO | | Change Station
CLOSE
Current Station
Personal Weather Station
Location: Eldon, MO
Elevation: 918 ft
Nearby Weather Stations

Elev 918 ft 38.35 °N, 92.57 °W | Updated 7 seconds ago

Clear
Clear
92.8 °F
Feels Like 97 °F
N
0.0
Wind Variable Wind from SE
Gusts 0.0 mph

Today
High -- | Low -- °F
--% Chance of Precip.
Yesterday
High -- | Low -- °F
Precip. -- in
6:40 AM 7:36 PM
Waning Gibbous, 66% visible
Pressure 29.86 in
Visibility 10.0 miles
Clouds Clear
Heat Index 97 °F
Dew Point 68 °F
Humidity 45%
Rainfall 0.00 in
Snow Depth Not available.
UV 2.0 out of 12
Pollen 10.80 out of 12
Air Quality Not available.
Flu Activity Not available.
METAR KJEF 032153Z 22005KT 10SM CLR 33/18 A2990 RMK AO2 SLP110 T03330183
Pressure 29.86 in
Visibility 10.0 miles
Clouds Clear
Heat Index 97 °F
Dew Point 68 °F
Humidity 45%
Rainfall 0.00 in
Snow Depth Not available.
UV 2.0 out of 12
Pollen 10.80 out of 12
Air Quality Not available.
Flu Activity Not available.
METAR KJEF 032153Z 22005KT 10SM CLR 33/18 A2990 RMK AO2 SLP110 T03330183

10-Day Weather Forecast

×

Almanac

Astronomy

Sep. 03, 2015 Rise Set
Actual Time
Civil Twilight
Nautical Twilight
Astronomical Twilight
Moon
Length of Visible Light
Length of Day
Tomorrow will be .
, % of the Moon is Illuminated

Today's Extremes

State Highs State Lows

Community

WunderPhotos

Upload Photos

1,852,046 photos uploaded!

WunderBlogs® & News

Nearby

Air Quality

  Air Quality AQ Index Pollutant
Not available.

Snow Depth

Station Depth Elevation

Earthquake Activity

City Distance Mag. Time & Date
Minimum magnitude displayed is 2.5.

Coastal Water Temperatures

Place Temperature

Stations

Nearby Weather Stations

Station Location Temp. Windchill Dew Point Humidity Wind Precip. Elev Updated Type